createdAt,value
2022-12-08T00:04:05.229Z,98792.97
2022-12-08T00:09:25.107Z,98780.00
2022-12-08T00:14:30.563Z,98767.00
2022-12-08T00:19:33.566Z,98771.94
2022-12-08T00:24:38.460Z,98766.34
2022-12-08T00:29:44.263Z,98766.94
2022-12-08T00:34:47.003Z,98761.59
2022-12-08T00:39:49.746Z,98761.94
2022-12-08T00:44:54.525Z,98746.88
2022-12-08T00:49:57.274Z,98739.25
2022-12-08T00:54:59.968Z,98739.66
2022-12-08T01:00:05.148Z,98731.22
2022-12-08T01:05:08.959Z,98730.75
2022-12-08T01:10:11.708Z,98731.16
2022-12-08T01:15:15.700Z,98723.75
2022-12-08T01:20:18.769Z,98725.53
2022-12-08T01:25:21.540Z,98730.00
2022-12-08T01:30:25.700Z,98735.97
2022-12-08T01:35:28.530Z,98739.84
2022-12-08T01:40:31.303Z,98728.53
2022-12-08T01:45:35.418Z,98725.81
2022-12-08T01:50:39.615Z,98712.06
2022-12-08T01:55:45.838Z,98711.00
2022-12-08T02:00:50.699Z,98724.91
2022-12-08T02:05:53.791Z,98714.25
2022-12-08T02:10:56.486Z,98707.63
2022-12-08T02:16:05.498Z,98702.66
2022-12-08T02:21:11.261Z,98697.34
2022-12-08T02:26:51.001Z,98700.97
2022-12-08T02:32:06.330Z,98691.06
2022-12-08T02:37:17.150Z,98689.41
2022-12-08T02:42:26.201Z,98676.09
2022-12-08T02:47:29.540Z,98662.50
2022-12-08T02:52:46.783Z,98661.41
2022-12-08T02:58:01.436Z,98661.41
2022-12-08T03:03:09.788Z,98648.25
2022-12-08T03:08:16.451Z,98645.75
2022-12-08T03:13:22.509Z,98630.56
2022-12-08T03:18:29.846Z,98641.59
2022-12-08T03:23:34.334Z,98633.97
2022-12-08T03:28:37.029Z,98628.03
2022-12-08T03:33:42.290Z,98625.94
2022-12-08T03:38:47.652Z,98627.56
2022-12-08T03:43:52.056Z,98613.19
2022-12-08T03:48:54.855Z,98601.06
2022-12-08T03:53:58.968Z,98600.44
2022-12-08T03:59:01.994Z,98595.31
2022-12-08T04:04:04.811Z,98592.19
2022-12-08T04:09:08.951Z,98585.41
2022-12-08T04:14:11.634Z,98567.94
2022-12-08T04:19:14.943Z,98572.25
2022-12-08T04:24:19.345Z,98568.75
2022-12-08T04:29:22.105Z,98553.97
2022-12-08T04:34:25.005Z,98550.69
2022-12-08T04:39:29.075Z,98548.41
2022-12-08T04:44:31.801Z,98547.41
2022-12-08T04:49:34.581Z,98543.66
2022-12-08T04:54:38.727Z,98548.16
2022-12-08T04:59:41.478Z,98554.25
2022-12-08T05:04:44.215Z,98544.25
2022-12-08T05:09:48.436Z,98539.50
2022-12-08T05:14:51.195Z,98541.34
2022-12-08T05:19:54.122Z,98535.56
2022-12-08T05:24:58.160Z,98532.28
2022-12-08T05:30:01.133Z,98533.50
2022-12-08T05:35:04.021Z,98536.16
2022-12-08T05:40:09.884Z,98522.59
2022-12-08T05:45:12.595Z,98522.78
2022-12-08T05:50:15.287Z,98513.16
2022-12-08T05:55:19.432Z,98510.66
2022-12-08T06:00:22.888Z,98516.00
2022-12-08T06:05:25.682Z,98509.38
2022-12-08T06:10:29.879Z,98504.47
2022-12-08T06:15:32.667Z,98510.59
2022-12-08T06:20:35.613Z,98505.66
2022-12-08T06:25:39.650Z,98500.16
2022-12-08T06:30:42.301Z,98507.06
2022-12-08T06:35:44.970Z,98507.06
2022-12-08T06:40:55.774Z,98510.94
2022-12-08T06:45:58.571Z,98510.13
2022-12-08T06:51:07.492Z,98504.53
2022-12-08T06:56:12.515Z,98507.38
2022-12-08T07:01:15.593Z,98508.41
2022-12-08T07:06:21.681Z,98509.41
2022-12-08T07:11:25.743Z,98508.75
2022-12-08T07:16:28.457Z,98524.28
2022-12-08T07:21:31.150Z,98526.78
2022-12-08T07:26:35.207Z,98525.50
2022-12-08T07:31:38.096Z,98525.50
2022-12-08T07:36:40.922Z,98521.19
2022-12-08T07:41:44.993Z,98528.34
2022-12-08T07:46:47.695Z,98525.88
2022-12-08T07:51:50.552Z,98526.25
2022-12-08T07:56:54.613Z,98514.16
2022-12-08T08:02:22.357Z,98532.78
2022-12-08T08:07:20.056Z,98527.59
2022-12-08T08:12:32.383Z,98520.38
2022-12-08T08:17:36.084Z,98520.22
2022-12-08T08:22:38.830Z,98518.38
2022-12-08T08:27:43.424Z,98529.72
2022-12-08T08:32:46.168Z,98530.84
2022-12-08T08:37:49.617Z,98530.50
2022-12-08T08:42:53.795Z,98533.41
2022-12-08T08:47:56.520Z,98540.00
2022-12-08T08:52:59.193Z,98529.94
2022-12-08T08:58:03.267Z,98537.97
2022-12-08T09:03:05.996Z,98531.41
2022-12-08T09:08:08.781Z,98527.91
2022-12-08T09:13:13.046Z,98527.09
2022-12-08T09:18:15.794Z,98527.31
2022-12-08T09:23:18.457Z,98524.41
2022-12-08T09:28:22.477Z,98530.56
2022-12-08T09:33:25.151Z,98521.06
2022-12-08T09:38:27.799Z,98534.22
2022-12-08T09:43:47.674Z,98533.34
2022-12-08T09:48:55.622Z,98527.38
2022-12-08T09:54:02.068Z,98519.78
2022-12-08T09:59:11.844Z,98521.66
2022-12-08T10:04:23.667Z,98515.25
2022-12-08T10:09:32.066Z,98515.19
2022-12-08T10:14:41.603Z,98506.69
2022-12-08T10:19:45.478Z,98500.31
2022-12-08T10:24:53.819Z,98501.28
2022-12-08T10:29:57.904Z,98504.38
2022-12-08T10:35:04.591Z,98497.19
2022-12-08T10:40:11.716Z,98486.91
2022-12-08T10:45:24.086Z,98486.72
2022-12-08T10:50:34.454Z,98487.16
2022-12-08T10:55:42.030Z,98484.25
2022-12-08T11:00:46.204Z,98477.50
2022-12-08T11:05:49.023Z,98470.28
2022-12-08T11:10:51.701Z,98463.94
2022-12-08T11:15:56.847Z,98467.88
2022-12-08T11:21:03.955Z,98458.03
2022-12-08T11:26:11.717Z,98457.25
2022-12-08T11:31:24.032Z,98455.66
2022-12-08T11:36:28.441Z,98451.59
2022-12-08T11:41:33.203Z,98453.22
2022-12-08T11:46:41.327Z,98448.78
2022-12-08T11:51:47.936Z,98444.03
2022-12-08T11:56:52.752Z,98442.19
2022-12-08T12:01:58.053Z,98436.06
2022-12-08T12:07:34.464Z,98442.88
2022-12-08T12:12:48.948Z,98435.44
2022-12-08T12:17:54.763Z,98432.56
2022-12-08T12:22:59.772Z,98430.94
2022-12-08T12:28:04.618Z,98431.94
2022-12-08T12:33:13.406Z,98428.06
2022-12-08T12:38:41.473Z,98424.97
2022-12-08T12:44:23.945Z,98422.09
2022-12-08T12:50:09.115Z,98418.59
2022-12-08T12:55:29.923Z,98407.72
2022-12-08T13:00:34.040Z,98410.63
2022-12-08T13:05:49.092Z,98415.31
2022-12-08T13:11:00.735Z,98406.50
2022-12-08T13:16:17.179Z,98412.22
2022-12-08T13:21:23.119Z,98409.75
2022-12-08T13:26:27.003Z,98401.97
2022-12-08T13:31:48.297Z,98391.28
2022-12-08T13:37:18.828Z,98399.47
2022-12-08T13:42:25.892Z,98396.81
2022-12-08T13:47:34.796Z,98394.13
2022-12-08T13:58:07.773Z,98390.00
2022-12-08T14:03:14.103Z,98386.31
2022-12-08T14:08:36.259Z,98386.72
2022-12-08T14:13:43.766Z,98390.81
2022-12-08T14:18:47.846Z,98393.63
2022-12-08T14:23:50.563Z,98396.69
2022-12-08T14:28:53.387Z,98395.44
2022-12-08T14:33:57.798Z,98398.91
2022-12-08T14:39:00.525Z,98385.38
2022-12-08T14:44:03.272Z,98389.88
2022-12-08T14:49:33.567Z,98396.19
2022-12-08T14:54:36.536Z,98391.28
2022-12-08T14:59:40.359Z,98396.97
2022-12-08T15:04:46.476Z,98399.44
2022-12-08T15:09:50.394Z,98398.81
2022-12-08T15:14:57.255Z,98399.19
2022-12-08T15:20:02.589Z,98403.28
2022-12-08T15:25:09.619Z,98405.50
2022-12-08T15:30:14.273Z,98405.25
2022-12-08T15:35:18.275Z,98401.19
2022-12-08T15:40:22.841Z,98394.41
2022-12-08T15:45:28.817Z,98401.53
2022-12-08T15:50:32.856Z,98402.34
2022-12-08T15:55:38.699Z,98398.63
2022-12-08T16:00:57.906Z,98397.56
2022-12-08T16:06:50.824Z,98401.63
2022-12-08T16:12:05.216Z,98384.03
2022-12-08T16:17:05.550Z,98388.28
2022-12-08T16:33:01.904Z,98389.25
2022-12-08T16:38:06.181Z,98391.28
2022-12-08T16:43:10.065Z,98397.59
2022-12-08T16:48:15.333Z,98400.47
2022-12-08T16:53:19.356Z,98397.19
2022-12-08T16:58:22.016Z,98396.53
2022-12-08T17:03:24.705Z,98395.09
2022-12-08T17:08:28.785Z,98393.47
2022-12-08T17:13:31.484Z,98387.31
2022-12-08T17:18:34.221Z,98399.19
2022-12-08T17:23:38.270Z,98403.22
2022-12-08T17:29:00.045Z,98392.59
2022-12-08T17:34:05.197Z,98396.66
2022-12-08T17:39:14.854Z,98402.78
2022-12-08T17:44:21.500Z,98404.56
2022-12-08T17:49:26.352Z,98410.53
2022-12-08T17:54:30.460Z,98401.91
2022-12-08T17:59:33.835Z,98397.78
2022-12-08T18:04:36.571Z,98401.28
2022-12-08T18:09:40.636Z,98391.03
2022-12-08T18:14:46.064Z,98395.31
2022-12-08T18:19:48.759Z,98391.03
2022-12-08T18:24:52.780Z,98389.97
2022-12-08T18:29:55.520Z,98395.28
2022-12-08T18:34:58.262Z,98394.81
2022-12-08T18:40:02.536Z,98401.34
2022-12-08T18:45:07.205Z,98396.84
2022-12-08T18:50:10.991Z,98403.38
2022-12-08T18:55:15.298Z,98401.69
2022-12-08T19:00:19.881Z,98398.44
2022-12-08T19:05:22.532Z,98394.09
2022-12-08T19:10:26.757Z,98392.66
2022-12-08T19:15:29.534Z,98398.78
2022-12-08T19:20:32.255Z,98402.84
2022-12-08T19:25:36.249Z,98403.66
2022-12-08T19:30:39.004Z,98410.19
2022-12-08T19:35:41.756Z,98403.59
2022-12-08T19:41:03.298Z,98409.13
2022-12-08T19:46:06.295Z,98408.31
2022-12-08T19:51:09.372Z,98403.38
2022-12-08T19:56:13.403Z,98402.34
2022-12-08T20:01:17.480Z,98411.69
2022-12-08T20:06:20.548Z,98405.38
2022-12-08T20:11:24.610Z,98402.25
2022-12-08T20:16:27.420Z,98406.13
2022-12-08T20:21:30.301Z,98403.47
2022-12-08T20:26:34.367Z,98407.97
2022-12-08T20:31:37.210Z,98411.19
2022-12-08T20:36:39.984Z,98414.88
2022-12-08T20:41:44.882Z,98411.56
2022-12-08T20:46:49.583Z,98413.59
2022-12-08T20:51:52.699Z,98415.63
2022-12-08T20:56:56.970Z,98407.81
2022-12-08T21:02:00.379Z,98414.34
2022-12-08T21:07:03.713Z,98421.28
2022-12-08T21:12:08.201Z,98421.66
2022-12-08T21:17:11.200Z,98418.41
2022-12-08T21:22:14.079Z,98415.91
2022-12-08T21:27:18.422Z,98415.91
2022-12-08T21:32:24.492Z,98419.59
2022-12-08T21:37:31.669Z,98418.56
2022-12-08T21:42:44.718Z,98415.47
2022-12-08T21:47:48.958Z,98418.97
2022-12-08T21:52:51.922Z,98414.34
2022-12-08T21:57:56.918Z,98415.88
2022-12-08T22:02:59.895Z,98418.09
2022-12-08T22:08:02.798Z,98420.41
2022-12-08T22:13:07.255Z,98415.03
2022-12-08T22:18:11.329Z,98413.47
2022-12-08T22:23:14.470Z,98417.94
2022-12-08T22:28:18.635Z,98420.44
2022-12-08T22:33:21.561Z,98421.28
2022-12-08T22:38:24.417Z,98420.03
2022-12-08T22:43:29.555Z,98406.47
2022-12-08T22:48:32.509Z,98409.34
2022-12-08T22:53:35.450Z,98410.19
2022-12-08T22:58:40.881Z,98407.72
2022-12-08T23:03:43.780Z,98404.22
2022-12-08T23:08:46.687Z,98399.91
2022-12-08T23:13:50.867Z,98396.81
2022-12-08T23:18:53.634Z,98397.03
2022-12-08T23:23:56.359Z,98401.94
2022-12-08T23:29:01.194Z,98393.53
2022-12-08T23:34:04.021Z,98393.50
2022-12-08T23:39:07.350Z,98392.09
2022-12-08T23:44:11.978Z,98393.13
2022-12-08T23:49:14.769Z,98388.84
2022-12-08T23:54:17.993Z,98389.03
2022-12-08T23:59:22.135Z,98382.03
